Billings, MT (59102)

5:00 AM MDT on August 31, 2014 (GMT -0600)
QTH | Change Station
CLOSE
Current Station
Personal Weather Station
Location: Billings, MT
Elevation: 3228 ft
Nearby Weather Stations

Elev 3228 ft 45.78 °N, 108.57 °W | Updated 38 seconds ago

Mostly Cloudy
Mostly Cloudy
56.5 °F
Feels Like 56.5 °F
N
5.4
Wind Variable Wind from West
Gusts 5.4 mph

Today
High -- | Low -- °F
--% Chance of Precip.
Yesterday
High -- | Low -- °F
Precip. -- in
6:34 AM 7:54 PM
Waxing Crescent, 30% visible
Pressure 29.75 in
Visibility 10.0 miles
Clouds Scattered Clouds 8500 ft
Mostly Cloudy 11000 ft
Dew Point 51 °F
Humidity 82%
Rainfall 0.00 in
Snow Depth Not available.
UV 0 out of 12
Pollen 7.70 out of 12
Air Quality Not available.
Flu Activity Not available.
METAR KBIL 311053Z 25012KT 10SM SCT085 BKN110 14/08 A2980 RMK AO2 SLP072 T01390083

More Conditions Fewer Conditions

Pressure 29.75 in
Visibility 10.0 miles
Clouds Scattered Clouds 8500 ft
Mostly Cloudy 11000 ft
Dew Point 51 °F
Humidity 82%
Rainfall 0.00 in
Snow Depth Not available.
UV 0 out of 12
Pollen 7.70 out of 12
Air Quality Not available.
Flu Activity Not available.
METAR KBIL 311053Z 25012KT 10SM SCT085 BKN110 14/08 A2980 RMK AO2 SLP072 T01390083

More Conditions Fewer Conditions

10-Day Weather Forecast

Almanac

Astronomy

Aug. 31, 2014 Rise Set
Actual Time 6:34 AM MDT 7:54 PM MDT
Civil Twilight 6:03 AM MDT 8:24 PM MDT
Nautical Twilight 5:26 AM MDT 9:01 PM MDT
Astronomical Twilight 4:46 AM MDT 9:41 PM MDT
Moon 12:43 PM MDT 10:51 PM MDT
Length of Visible Light 14h 21m
Length of Day
13h 19m
Tomorrow will be 3m 6s shorter.
Waxing Crescent, 30% of the Moon is Illuminated
Today
Waxing Crescent
Sep 2
First Quarter
Sep 8
Full
Sep 15
Last Quarter
Sep 24
New

Today's Extremes

State Highs State Lows

Community

WunderPhotos

Upload Photos

1,748,837 photos uploaded!

Nearby

Snow Depth

Station Depth Elevation
Cole Creek 1 in 7850 ft
Burnt Mountain 0 in 5880 ft
Placer Basin 0 in 8830 ft
White Mill 2 in 8700 ft
Crystal Lake 1 in 6050 ft

Earthquake Activity

City Distance Mag. Time & Date
No recent earthquake activity has been reported nearby.
Minimum magnitude displayed is 2.5.

Coastal Water Temperatures

Place Temperature
No Stations Reporting

Nearby Weather Stations